Regatta — V7DM3 — position and weather

sailwx.info

Track history (hours):
 
Tides and Currents Weather Stations Pressure Air Temp Water Temp Dewpoint Dewpoint Depression Visibility Wind Speed Wind Dir Waves Ship Positions

Regatta

Last reported at 2018-May-26 07:58 UTC. Time now 2018-May-27 13:58 UTC.
Position N 54°08' W 131°01'.

Length 180 m; draft 5.7 m.

Type: Passenger vessel. MMSI: 538001664.

Date/timePositionNaut miles runAvg speedWind from/ knotsBaromVisibWave heightAir tempDewpointWater temp
2018-May-26 07:58N 54°08' W 131°01'51617.8
2018-May-25 03:00N 45°54' W 127°12'48116.8 330 / 171020.610.8 14.010.512.0
2018-May-23 22:20N 38°22' W 123°33'514.4
2018-May-23 22:00N 38°18' W 123°29'714.2
2018-May-23 21:30N 38°13' W 123°23'714.3
2018-May-23 21:01N 38°07' W 123°18'916.4
2018-May-23 20:27N 37°60' W 123°10'817.1
2018-May-23 20:01N 37°56' W 123°02'2714.0
2018-May-23 18:04N 37°49' W 122°29'111.6
2018-May-23 18:00N 37°49' W 122°28'3 0.6
2018-May-23 12:37N 37°48' W 122°24'0 0.0
2018-May-23 12:13N 37°48' W 122°24'0 0.0
2018-May-23 11:49N 37°48' W 122°24'0 0.0
2018-May-23 11:19N 37°48' W 122°24'0 0.0
2018-May-23 10:55N 37°48' W 122°24'0 0.0
2018-May-23 10:19N 37°48' W 122°24'0 0.0
2018-May-23 09:55N 37°48' W 122°24'0 0.0
2018-May-23 09:13N 37°48' W 122°24'0 0.0
2018-May-23 08:55N 37°48' W 122°24'0 0.0
2018-May-23 08:25N 37°48' W 122°24'0 0.0
2018-May-23 07:37N 37°48' W 122°24'0 0.0
2018-May-23 07:13N 37°48' W 122°24'0 0.0
2018-May-23 06:55N 37°48' W 122°24'0 0.0
2018-May-23 06:25N 37°48' W 122°24'0 0.0
2018-May-23 02:07N 37°48' W 122°24'0 0.1
2018-May-23 01:43N 37°48' W 122°24'0 0.0
2018-May-23 01:25N 37°48' W 122°24'0 0.0
2018-May-22 22:28N 37°48' W 122°24'0 0.0
2018-May-22 21:58N 37°48' W 122°24'0 0.2
2018-May-22 21:30N 37°48' W 122°24'2 3.6
2018-May-22 21:00N 37°49' W 122°26'511.0
2018-May-22 20:31N 37°47' W 122°33'714.0
2018-May-22 20:00N 37°44' W 122°41'612.8
2018-May-22 19:31N 37°38' W 122°40'917.5
2018-May-22 19:01N 37°29' W 122°40'917.3
2018-May-22 18:31N 37°21' W 122°40'917.4
2018-May-22 18:00N 37°12' W 122°40'14216.9
2018-May-22 09:37N 35°04' W 121°25'217.0
2018-May-22 09:31N 35°02' W 121°24'917.1
2018-May-22 09:00N 34°55' W 121°17'816.9
2018-May-22 08:30N 34°48' W 121°11'817.0
2018-May-22 08:01N 34°42' W 121°05'816.5
2018-May-22 07:31N 34°35' W 120°59'816.4
2018-May-22 07:01N 34°28' W 120°54'816.0
2018-May-22 06:31N 34°25' W 120°45'816.4
2018-May-22 06:01N 34°23' W 120°35'916.6
2018-May-22 05:30N 34°20' W 120°25'817.2
2018-May-22 05:00N 34°18' W 120°16'917.6
2018-May-22 04:30N 34°15' W 120°05'917.2
2018-May-22 03:59N 34°13' W 119°55'816.8
2018-May-22 03:30N 34°11' W 119°45'1017.1
2018-May-22 02:57N 34°08' W 119°34'817.3
2018-May-22 02:30N 34°06' W 119°25'817.1
2018-May-22 02:00N 34°04' W 119°16'916.9
2018-May-22 01:28N 33°55' W 119°12'715.3
2018-May-22 01:00N 33°48' W 119°12'815.7
2018-May-22 00:30N 33°40' W 119°12'815.9
2018-May-22 00:00N 33°32' W 119°12'917.5
2018-May-21 23:30N 33°24' W 119°12'74416.0
2018-May-20 01:00N 23°30' W 110°42'28611.9 280 / 201008.5 5.4 20.018.518.0
2018-May-19 01:00N 20°24' W 106°48'66313.0 260 / 141007.310.8 29.027.728.0
2018-May-16 22:00N 15°18' W 096°30'   170 / 151008.1 5.4 29.027.728.0
Track history (hours):
 
Tides and Currents Weather Stations Pressure Air Temp Water Temp Dewpoint Dewpoint Depression Visibility Wind Speed Wind Dir Waves Ship Positions

Regatta

Last reported at 2018-May-26 07:58 UTC. Time now 2018-May-27 13:58 UTC.
Position N 54°08' W 131°01'.

Length 180 m; draft 5.7 m.

Type: Passenger vessel. MMSI: 538001664.

Date/timePositionNaut miles runAvg speedWind from/ knotsBaromVisibWave heightAir tempDewpointWater temp
2018-May-26 07:58N 54°08' W 131°01'51617.8
2018-May-25 03:00N 45°54' W 127°12'48116.8 330 / 171020.610.8 14.010.512.0
2018-May-23 22:20N 38°22' W 123°33'514.4
2018-May-23 22:00N 38°18' W 123°29'714.2
2018-May-23 21:30N 38°13' W 123°23'714.3
2018-May-23 21:01N 38°07' W 123°18'916.4
2018-May-23 20:27N 37°60' W 123°10'817.1
2018-May-23 20:01N 37°56' W 123°02'2714.0
2018-May-23 18:04N 37°49' W 122°29'111.6
2018-May-23 18:00N 37°49' W 122°28'3 0.6
2018-May-23 12:37N 37°48' W 122°24'0 0.0
2018-May-23 12:13N 37°48' W 122°24'0 0.0
2018-May-23 11:49N 37°48' W 122°24'0 0.0
2018-May-23 11:19N 37°48' W 122°24'0 0.0
2018-May-23 10:55N 37°48' W 122°24'0 0.0
2018-May-23 10:19N 37°48' W 122°24'0 0.0
2018-May-23 09:55N 37°48' W 122°24'0 0.0
2018-May-23 09:13N 37°48' W 122°24'0 0.0
2018-May-23 08:55N 37°48' W 122°24'0 0.0
2018-May-23 08:25N 37°48' W 122°24'0 0.0
2018-May-23 07:37N 37°48' W 122°24'0 0.0
2018-May-23 07:13N 37°48' W 122°24'0 0.0
2018-May-23 06:55N 37°48' W 122°24'0 0.0
2018-May-23 06:25N 37°48' W 122°24'0 0.0
2018-May-23 02:07N 37°48' W 122°24'0 0.1
2018-May-23 01:43N 37°48' W 122°24'0 0.0
2018-May-23 01:25N 37°48' W 122°24'0 0.0
2018-May-22 22:28N 37°48' W 122°24'0 0.0
2018-May-22 21:58N 37°48' W 122°24'0 0.2
2018-May-22 21:30N 37°48' W 122°24'2 3.6
2018-May-22 21:00N 37°49' W 122°26'511.0
2018-May-22 20:31N 37°47' W 122°33'714.0
2018-May-22 20:00N 37°44' W 122°41'612.8
2018-May-22 19:31N 37°38' W 122°40'917.5
2018-May-22 19:01N 37°29' W 122°40'917.3
2018-May-22 18:31N 37°21' W 122°40'917.4
2018-May-22 18:00N 37°12' W 122°40'14216.9
2018-May-22 09:37N 35°04' W 121°25'217.0
2018-May-22 09:31N 35°02' W 121°24'917.1
2018-May-22 09:00N 34°55' W 121°17'816.9
2018-May-22 08:30N 34°48' W 121°11'817.0
2018-May-22 08:01N 34°42' W 121°05'816.5
2018-May-22 07:31N 34°35' W 120°59'816.4
2018-May-22 07:01N 34°28' W 120°54'816.0
2018-May-22 06:31N 34°25' W 120°45'816.4
2018-May-22 06:01N 34°23' W 120°35'916.6
2018-May-22 05:30N 34°20' W 120°25'817.2
2018-May-22 05:00N 34°18' W 120°16'917.6
2018-May-22 04:30N 34°15' W 120°05'917.2
2018-May-22 03:59N 34°13' W 119°55'816.8
2018-May-22 03:30N 34°11' W 119°45'1017.1
2018-May-22 02:57N 34°08' W 119°34'817.3
2018-May-22 02:30N 34°06' W 119°25'817.1
2018-May-22 02:00N 34°04' W 119°16'916.9
2018-May-22 01:28N 33°55' W 119°12'715.3
2018-May-22 01:00N 33°48' W 119°12'815.7
2018-May-22 00:30N 33°40' W 119°12'815.9
2018-May-22 00:00N 33°32' W 119°12'917.5
2018-May-21 23:30N 33°24' W 119°12'74416.0
2018-May-20 01:00N 23°30' W 110°42'28611.9 280 / 201008.5 5.4 20.018.518.0
2018-May-19 01:00N 20°24' W 106°48'66313.0 260 / 141007.310.8 29.027.728.0
2018-May-16 22:00N 15°18' W 096°30'   170 / 151008.1 5.4 29.027.728.0

Dump ship's entire track history